sensor_id;sensor_type;location;lat;lon;timestamp;temperature;humidity
22544;DHT22;11438;52.044;8.716;2022-10-26T00:00:29;14.00;95.20
22544;DHT22;11438;52.044;8.716;2022-10-26T00:02:55;14.00;95.20
22544;DHT22;11438;52.044;8.716;2022-10-26T00:05:22;14.00;95.30
22544;DHT22;11438;52.044;8.716;2022-10-26T00:07:48;14.00;95.30
22544;DHT22;11438;52.044;8.716;2022-10-26T00:10:14;13.90;95.40
22544;DHT22;11438;52.044;8.716;2022-10-26T00:12:39;13.90;95.40
22544;DHT22;11438;52.044;8.716;2022-10-26T00:15:06;13.90;95.50
22544;DHT22;11438;52.044;8.716;2022-10-26T00:17:31;13.90;95.50
22544;DHT22;11438;52.044;8.716;2022-10-26T00:19:57;13.90;95.50
22544;DHT22;11438;52.044;8.716;2022-10-26T00:22:25;13.90;95.60
22544;DHT22;11438;52.044;8.716;2022-10-26T00:24:50;13.90;95.90
22544;DHT22;11438;52.044;8.716;2022-10-26T00:27:16;13.90;95.60
22544;DHT22;11438;52.044;8.716;2022-10-26T00:29:41;13.80;95.60
22544;DHT22;11438;52.044;8.716;2022-10-26T00:32:07;13.80;95.50
22544;DHT22;11438;52.044;8.716;2022-10-26T00:34:33;13.80;95.50
22544;DHT22;11438;52.044;8.716;2022-10-26T00:36:58;13.80;95.50
22544;DHT22;11438;52.044;8.716;2022-10-26T00:39:24;13.80;95.50
22544;DHT22;11438;52.044;8.716;2022-10-26T00:41:49;13.80;95.50
22544;DHT22;11438;52.044;8.716;2022-10-26T00:44:43;13.80;95.50
22544;DHT22;11438;52.044;8.716;2022-10-26T00:49:56;13.80;95.70
22544;DHT22;11438;52.044;8.716;2022-10-26T00:52:23;13.80;95.70
22544;DHT22;11438;52.044;8.716;2022-10-26T00:54:50;13.70;95.70
22544;DHT22;11438;52.044;8.716;2022-10-26T00:57:17;13.70;96.10
22544;DHT22;11438;52.044;8.716;2022-10-26T00:59:43;13.70;95.80
22544;DHT22;11438;52.044;8.716;2022-10-26T01:02:10;13.70;95.80
22544;DHT22;11438;52.044;8.716;2022-10-26T01:04:36;13.70;95.90
22544;DHT22;11438;52.044;8.716;2022-10-26T01:07:03;13.70;95.90
22544;DHT22;11438;52.044;8.716;2022-10-26T01:09:29;13.70;96.00
22544;DHT22;11438;52.044;8.716;2022-10-26T01:11:56;13.60;95.90
22544;DHT22;11438;52.044;8.716;2022-10-26T01:14:22;13.70;96.00
22544;DHT22;11438;52.044;8.716;2022-10-26T01:16:52;13.70;95.90
22544;DHT22;11438;52.044;8.716;2022-10-26T01:25:15;13.70;95.90
22544;DHT22;11438;52.044;8.716;2022-10-26T01:27:48;13.60;96.00
22544;DHT22;11438;52.044;8.716;2022-10-26T01:33:32;13.60;96.00
22544;DHT22;11438;52.044;8.716;2022-10-26T01:36:16;13.60;96.10
22544;DHT22;11438;52.044;8.716;2022-10-26T01:39:13;13.60;96.10
22544;DHT22;11438;52.044;8.716;2022-10-26T01:41:53;13.60;96.20
22544;DHT22;11438;52.044;8.716;2022-10-26T01:44:24;13.60;96.20
22544;DHT22;11438;52.044;8.716;2022-10-26T01:46:52;13.60;96.30
22544;DHT22;11438;52.044;8.716;2022-10-26T01:49:28;13.60;96.40
22544;DHT22;11438;52.044;8.716;2022-10-26T01:51:56;13.60;96.60
22544;DHT22;11438;52.044;8.716;2022-10-26T01:54:21;13.60;96.60
22544;DHT22;11438;52.044;8.716;2022-10-26T01:56:51;13.60;96.80
22544;DHT22;11438;52.044;8.716;2022-10-26T01:59:31;13.60;96.90
22544;DHT22;11438;52.044;8.716;2022-10-26T02:04:36;13.60;96.90
22544;DHT22;11438;52.044;8.716;2022-10-26T02:07:22;13.60;97.00
22544;DHT22;11438;52.044;8.716;2022-10-26T02:09:59;13.70;97.10
22544;DHT22;11438;52.044;8.716;2022-10-26T02:15:21;13.70;97.10
22544;DHT22;11438;52.044;8.716;2022-10-26T02:17:59;13.70;97.10
22544;DHT22;11438;52.044;8.716;2022-10-26T02:20:43;13.70;97.20
22544;DHT22;11438;52.044;8.716;2022-10-26T02:23:10;13.70;97.20
22544;DHT22;11438;52.044;8.716;2022-10-26T02:25:41;13.70;97.20
22544;DHT22;11438;52.044;8.716;2022-10-26T02:28:12;13.70;97.20
22544;DHT22;11438;52.044;8.716;2022-10-26T02:30:39;13.70;97.20
22544;DHT22;11438;52.044;8.716;2022-10-26T02:33:07;13.70;97.20
22544;DHT22;11438;52.044;8.716;2022-10-26T02:35:36;13.70;97.20
22544;DHT22;11438;52.044;8.716;2022-10-26T02:38:06;13.70;97.20
22544;DHT22;11438;52.044;8.716;2022-10-26T02:40:33;13.70;97.20
22544;DHT22;11438;52.044;8.716;2022-10-26T02:43:05;13.70;97.20
22544;DHT22;11438;52.044;8.716;2022-10-26T02:45:48;13.70;97.20
22544;DHT22;11438;52.044;8.716;2022-10-26T02:48:15;13.70;97.20
22544;DHT22;11438;52.044;8.716;2022-10-26T02:56:20;13.70;97.20
22544;DHT22;11438;52.044;8.716;2022-10-26T02:58:52;13.70;97.20
22544;DHT22;11438;52.044;8.716;2022-10-26T03:01:19;13.70;97.30
22544;DHT22;11438;52.044;8.716;2022-10-26T03:03:46;13.70;97.30
22544;DHT22;11438;52.044;8.716;2022-10-26T03:06:11;13.70;97.30
22544;DHT22;11438;52.044;8.716;2022-10-26T03:08:37;13.70;97.40
22544;DHT22;11438;52.044;8.716;2022-10-26T03:11:03;13.70;97.30
22544;DHT22;11438;52.044;8.716;2022-10-26T03:13:28;13.70;97.40
22544;DHT22;11438;52.044;8.716;2022-10-26T03:15:55;13.70;97.40
22544;DHT22;11438;52.044;8.716;2022-10-26T03:18:21;13.70;97.40
22544;DHT22;11438;52.044;8.716;2022-10-26T03:20:47;13.70;97.40
22544;DHT22;11438;52.044;8.716;2022-10-26T03:23:13;13.70;97.40
22544;DHT22;11438;52.044;8.716;2022-10-26T03:25:38;13.70;97.50
22544;DHT22;11438;52.044;8.716;2022-10-26T03:28:04;13.70;97.50
22544;DHT22;11438;52.044;8.716;2022-10-26T03:30:31;13.70;97.50
22544;DHT22;11438;52.044;8.716;2022-10-26T03:32:57;13.70;97.50
22544;DHT22;11438;52.044;8.716;2022-10-26T03:35:23;13.70;97.50
22544;DHT22;11438;52.044;8.716;2022-10-26T03:37:48;13.70;97.50
22544;DHT22;11438;52.044;8.716;2022-10-26T03:40:14;13.70;97.50
22544;DHT22;11438;52.044;8.716;2022-10-26T03:42:40;13.60;97.50
22544;DHT22;11438;52.044;8.716;2022-10-26T03:45:06;13.60;97.40
22544;DHT22;11438;52.044;8.716;2022-10-26T03:47:32;13.60;97.50
22544;DHT22;11438;52.044;8.716;2022-10-26T03:49:59;13.60;97.50
22544;DHT22;11438;52.044;8.716;2022-10-26T03:52:24;13.60;97.60
22544;DHT22;11438;52.044;8.716;2022-10-26T03:54:50;13.60;97.60
22544;DHT22;11438;52.044;8.716;2022-10-26T03:57:17;13.60;97.60
22544;DHT22;11438;52.044;8.716;2022-10-26T03:59:42;13.60;97.60
22544;DHT22;11438;52.044;8.716;2022-10-26T04:02:08;13.60;97.60
22544;DHT22;11438;52.044;8.716;2022-10-26T04:04:33;13.60;97.60
22544;DHT22;11438;52.044;8.716;2022-10-26T04:06:59;13.60;97.70
22544;DHT22;11438;52.044;8.716;2022-10-26T04:09:24;13.60;97.70
22544;DHT22;11438;52.044;8.716;2022-10-26T04:11:50;13.60;97.70
22544;DHT22;11438;52.044;8.716;2022-10-26T04:14:15;13.60;97.70
22544;DHT22;11438;52.044;8.716;2022-10-26T04:16:41;13.50;97.70
22544;DHT22;11438;52.044;8.716;2022-10-26T04:19:07;13.60;97.70
22544;DHT22;11438;52.044;8.716;2022-10-26T04:21:32;13.60;97.80
22544;DHT22;11438;52.044;8.716;2022-10-26T04:23:59;13.60;97.80
22544;DHT22;11438;52.044;8.716;2022-10-26T04:26:25;13.50;97.80
22544;DHT22;11438;52.044;8.716;2022-10-26T04:28:51;13.60;97.90
22544;DHT22;11438;52.044;8.716;2022-10-26T04:31:16;13.60;98.00
22544;DHT22;11438;52.044;8.716;2022-10-26T04:33:42;13.50;98.00
22544;DHT22;11438;52.044;8.716;2022-10-26T04:36:07;13.50;98.00
22544;DHT22;11438;52.044;8.716;2022-10-26T04:38:33;13.50;98.00
22544;DHT22;11438;52.044;8.716;2022-10-26T04:40:59;13.60;98.10
22544;DHT22;11438;52.044;8.716;2022-10-26T04:43:24;13.60;98.10
22544;DHT22;11438;52.044;8.716;2022-10-26T04:45:54;13.60;98.10
22544;DHT22;11438;52.044;8.716;2022-10-26T04:48:20;13.60;98.20
22544;DHT22;11438;52.044;8.716;2022-10-26T04:50:46;13.60;98.20
22544;DHT22;11438;52.044;8.716;2022-10-26T04:53:11;13.60;98.20
22544;DHT22;11438;52.044;8.716;2022-10-26T04:55:37;13.60;98.20
22544;DHT22;11438;52.044;8.716;2022-10-26T04:58:03;13.60;98.20
22544;DHT22;11438;52.044;8.716;2022-10-26T05:00:30;13.60;98.20
22544;DHT22;11438;52.044;8.716;2022-10-26T05:03:01;13.60;98.20
22544;DHT22;11438;52.044;8.716;2022-10-26T05:05:27;13.60;98.30
22544;DHT22;11438;52.044;8.716;2022-10-26T05:07:54;13.60;98.30
22544;DHT22;11438;52.044;8.716;2022-10-26T05:10:20;13.60;98.30
22544;DHT22;11438;52.044;8.716;2022-10-26T05:12:56;13.60;98.30
22544;DHT22;11438;52.044;8.716;2022-10-26T05:15:22;13.60;98.40
22544;DHT22;11438;52.044;8.716;2022-10-26T05:17:54;13.60;98.30
22544;DHT22;11438;52.044;8.716;2022-10-26T05:20:21;13.60;98.40
22544;DHT22;11438;52.044;8.716;2022-10-26T05:22:53;13.60;98.40
22544;DHT22;11438;52.044;8.716;2022-10-26T05:25:19;13.60;98.40
22544;DHT22;11438;52.044;8.716;2022-10-26T05:27:44;13.60;98.40
22544;DHT22;11438;52.044;8.716;2022-10-26T05:30:10;13.60;98.40
22544;DHT22;11438;52.044;8.716;2022-10-26T05:32:36;13.60;98.40
22544;DHT22;11438;52.044;8.716;2022-10-26T05:35:01;13.60;98.50
22544;DHT22;11438;52.044;8.716;2022-10-26T05:37:28;13.60;98.50
22544;DHT22;11438;52.044;8.716;2022-10-26T05:39:54;13.60;98.50
22544;DHT22;11438;52.044;8.716;2022-10-26T05:42:19;13.60;98.50
22544;DHT22;11438;52.044;8.716;2022-10-26T05:44:45;13.60;98.50
22544;DHT22;11438;52.044;8.716;2022-10-26T05:47:11;13.60;98.50
22544;DHT22;11438;52.044;8.716;2022-10-26T05:49:36;13.60;98.50
22544;DHT22;11438;52.044;8.716;2022-10-26T05:52:02;13.60;98.60
22544;DHT22;11438;52.044;8.716;2022-10-26T05:54:28;13.60;98.60
22544;DHT22;11438;52.044;8.716;2022-10-26T05:56:53;13.60;98.70
22544;DHT22;11438;52.044;8.716;2022-10-26T05:59:19;13.60;98.70
22544;DHT22;11438;52.044;8.716;2022-10-26T06:02:03;13.60;98.70
22544;DHT22;11438;52.044;8.716;2022-10-26T06:04:47;13.60;98.80
22544;DHT22;11438;52.044;8.716;2022-10-26T06:07:15;13.60;98.80
22544;DHT22;11438;52.044;8.716;2022-10-26T06:09:42;13.60;98.70
22544;DHT22;11438;52.044;8.716;2022-10-26T06:12:09;13.60;98.80
22544;DHT22;11438;52.044;8.716;2022-10-26T06:14:35;13.60;98.70
22544;DHT22;11438;52.044;8.716;2022-10-26T06:17:20;13.60;98.70
22544;DHT22;11438;52.044;8.716;2022-10-26T06:20:20;13.60;98.80
22544;DHT22;11438;52.044;8.716;2022-10-26T06:23:03;13.60;98.80
22544;DHT22;11438;52.044;8.716;2022-10-26T06:25:49;13.70;98.80
22544;DHT22;11438;52.044;8.716;2022-10-26T06:28:49;13.70;98.90
22544;DHT22;11438;52.044;8.716;2022-10-26T06:31:18;13.70;99.00
22544;DHT22;11438;52.044;8.716;2022-10-26T06:33:43;13.70;99.00
22544;DHT22;11438;52.044;8.716;2022-10-26T06:36:16;13.70;99.10
22544;DHT22;11438;52.044;8.716;2022-10-26T06:38:46;13.70;99.20
22544;DHT22;11438;52.044;8.716;2022-10-26T06:41:12;13.70;99.20
22544;DHT22;11438;52.044;8.716;2022-10-26T06:43:40;13.80;99.30
22544;DHT22;11438;52.044;8.716;2022-10-26T06:51:20;13.80;99.40
22544;DHT22;11438;52.044;8.716;2022-10-26T06:53:50;13.80;99.30
22544;DHT22;11438;52.044;8.716;2022-10-26T06:56:16;13.90;99.40
22544;DHT22;11438;52.044;8.716;2022-10-26T06:58:43;13.90;99.40
22544;DHT22;11438;52.044;8.716;2022-10-26T07:01:10;13.90;99.40
22544;DHT22;11438;52.044;8.716;2022-10-26T07:03:37;14.00;99.40
22544;DHT22;11438;52.044;8.716;2022-10-26T07:06:02;14.00;99.40
22544;DHT22;11438;52.044;8.716;2022-10-26T07:08:30;14.00;99.40
22544;DHT22;11438;52.044;8.716;2022-10-26T07:10:56;14.10;99.50
22544;DHT22;11438;52.044;8.716;2022-10-26T07:13:21;14.10;99.40
22544;DHT22;11438;52.044;8.716;2022-10-26T07:15:47;14.10;99.40
22544;DHT22;11438;52.044;8.716;2022-10-26T07:18:12;14.20;99.40
22544;DHT22;11438;52.044;8.716;2022-10-26T07:20:40;14.20;99.40
22544;DHT22;11438;52.044;8.716;2022-10-26T07:23:07;14.20;99.40
22544;DHT22;11438;52.044;8.716;2022-10-26T07:25:33;14.20;99.50
22544;DHT22;11438;52.044;8.716;2022-10-26T07:28:00;14.20;99.50
22544;DHT22;11438;52.044;8.716;2022-10-26T07:30:27;14.30;99.50
22544;DHT22;11438;52.044;8.716;2022-10-26T07:33:11;14.30;99.60
22544;DHT22;11438;52.044;8.716;2022-10-26T07:35:37;14.30;99.70
22544;DHT22;11438;52.044;8.716;2022-10-26T07:38:03;14.40;99.70
22544;DHT22;11438;52.044;8.716;2022-10-26T07:40:29;14.40;99.70
22544;DHT22;11438;52.044;8.716;2022-10-26T07:42:56;14.50;99.80
22544;DHT22;11438;52.044;8.716;2022-10-26T07:45:22;14.50;99.80
22544;DHT22;11438;52.044;8.716;2022-10-26T07:47:48;14.50;99.90
22544;DHT22;11438;52.044;8.716;2022-10-26T07:50:14;14.50;99.90
22544;DHT22;11438;52.044;8.716;2022-10-26T07:52:40;14.60;99.90
22544;DHT22;11438;52.044;8.716;2022-10-26T07:55:08;14.60;99.90
22544;DHT22;11438;52.044;8.716;2022-10-26T07:57:34;14.60;99.90
22544;DHT22;11438;52.044;8.716;2022-10-26T07:59:59;14.70;99.90
22544;DHT22;11438;52.044;8.716;2022-10-26T08:02:25;14.70;99.90
22544;DHT22;11438;52.044;8.716;2022-10-26T08:04:50;14.70;99.90
22544;DHT22;11438;52.044;8.716;2022-10-26T08:07:16;14.80;99.80
22544;DHT22;11438;52.044;8.716;2022-10-26T08:09:42;14.80;99.90
22544;DHT22;11438;52.044;8.716;2022-10-26T08:12:07;14.80;99.90
22544;DHT22;11438;52.044;8.716;2022-10-26T08:14:33;14.90;99.90
22544;DHT22;11438;52.044;8.716;2022-10-26T08:16:58;14.90;99.90
22544;DHT22;11438;52.044;8.716;2022-10-26T08:19:24;14.90;99.90
22544;DHT22;11438;52.044;8.716;2022-10-26T08:21:49;14.90;99.90
22544;DHT22;11438;52.044;8.716;2022-10-26T08:24:15;14.90;99.90
22544;DHT22;11438;52.044;8.716;2022-10-26T08:26:41;15.00;99.90
22544;DHT22;11438;52.044;8.716;2022-10-26T08:29:06;15.00;99.90
22544;DHT22;11438;52.044;8.716;2022-10-26T08:31:32;15.00;99.90
22544;DHT22;11438;52.044;8.716;2022-10-26T08:33:58;15.10;99.90
22544;DHT22;11438;52.044;8.716;2022-10-26T08:36:26;15.10;99.90
22544;DHT22;11438;52.044;8.716;2022-10-26T08:38:52;15.10;99.90
22544;DHT22;11438;52.044;8.716;2022-10-26T08:41:33;15.10;99.90
22544;DHT22;11438;52.044;8.716;2022-10-26T08:44:16;15.20;99.90
22544;DHT22;11438;52.044;8.716;2022-10-26T08:46:48;15.20;99.90
22544;DHT22;11438;52.044;8.716;2022-10-26T08:51:52;15.30;99.90
22544;DHT22;11438;52.044;8.716;2022-10-26T08:54:34;15.30;99.90
22544;DHT22;11438;52.044;8.716;2022-10-26T08:57:15;15.40;99.90
22544;DHT22;11438;52.044;8.716;2022-10-26T08:59:56;15.50;99.90
22544;DHT22;11438;52.044;8.716;2022-10-26T09:02:22;15.50;99.90
22544;DHT22;11438;52.044;8.716;2022-10-26T09:04:50;15.60;99.90
22544;DHT22;11438;52.044;8.716;2022-10-26T09:10:40;15.70;99.90
22544;DHT22;11438;52.044;8.716;2022-10-26T09:13:32;15.70;99.90
22544;DHT22;11438;52.044;8.716;2022-10-26T09:19:01;15.80;99.90
22544;DHT22;11438;52.044;8.716;2022-10-26T09:21:46;15.90;99.90
22544;DHT22;11438;52.044;8.716;2022-10-26T09:26:51;16.00;99.90
22544;DHT22;11438;52.044;8.716;2022-10-26T09:29:18;16.00;99.90
22544;DHT22;11438;52.044;8.716;2022-10-26T09:31:47;16.10;99.90
22544;DHT22;11438;52.044;8.716;2022-10-26T09:34:42;16.10;99.90
22544;DHT22;11438;52.044;8.716;2022-10-26T09:37:31;16.20;99.90
22544;DHT22;11438;52.044;8.716;2022-10-26T09:42:37;16.30;99.90
22544;DHT22;11438;52.044;8.716;2022-10-26T09:45:32;16.40;99.90
22544;DHT22;11438;52.044;8.716;2022-10-26T09:48:11;16.40;99.90
22544;DHT22;11438;52.044;8.716;2022-10-26T09:50:40;16.50;99.90
22544;DHT22;11438;52.044;8.716;2022-10-26T09:53:07;16.60;99.90
22544;DHT22;11438;52.044;8.716;2022-10-26T09:55:39;16.70;99.90
22544;DHT22;11438;52.044;8.716;2022-10-26T09:58:12;16.80;99.90
22544;DHT22;11438;52.044;8.716;2022-10-26T10:00:39;16.90;99.90
22544;DHT22;11438;52.044;8.716;2022-10-26T10:03:24;17.00;99.90
22544;DHT22;11438;52.044;8.716;2022-10-26T10:05:50;17.10;99.90
22544;DHT22;11438;52.044;8.716;2022-10-26T10:08:23;17.30;99.90
22544;DHT22;11438;52.044;8.716;2022-10-26T10:13:37;17.40;99.90
22544;DHT22;11438;52.044;8.716;2022-10-26T10:16:22;17.50;99.90
22544;DHT22;11438;52.044;8.716;2022-10-26T10:18:55;17.60;99.90
22544;DHT22;11438;52.044;8.716;2022-10-26T10:21:39;17.70;99.90
22544;DHT22;11438;52.044;8.716;2022-10-26T10:24:31;17.70;99.80
22544;DHT22;11438;52.044;8.716;2022-10-26T10:27:03;17.80;99.70
22544;DHT22;11438;52.044;8.716;2022-10-26T10:29:38;17.90;99.60
22544;DHT22;11438;52.044;8.716;2022-10-26T10:32:04;17.90;99.50
22544;DHT22;11438;52.044;8.716;2022-10-26T10:34:32;18.00;99.50
22544;DHT22;11438;52.044;8.716;2022-10-26T10:36:59;18.00;99.50
22544;DHT22;11438;52.044;8.716;2022-10-26T10:39:39;18.00;99.40
22544;DHT22;11438;52.044;8.716;2022-10-26T10:42:15;18.10;99.50
22544;DHT22;11438;52.044;8.716;2022-10-26T10:44:42;18.20;99.40
22544;DHT22;11438;52.044;8.716;2022-10-26T10:47:20;18.20;99.20
22544;DHT22;11438;52.044;8.716;2022-10-26T10:50:16;18.20;99.10
22544;DHT22;11438;52.044;8.716;2022-10-26T10:52:42;18.30;99.10
22544;DHT22;11438;52.044;8.716;2022-10-26T11:00:22;18.30;98.80
22544;DHT22;11438;52.044;8.716;2022-10-26T11:11:12;18.50;98.60
22544;DHT22;11438;52.044;8.716;2022-10-26T11:13:55;18.50;98.90
22544;DHT22;11438;52.044;8.716;2022-10-26T11:16:28;18.50;98.80
22544;DHT22;11438;52.044;8.716;2022-10-26T11:21:30;18.60;98.80
22544;DHT22;11438;52.044;8.716;2022-10-26T11:24:12;18.70;98.80
22544;DHT22;11438;52.044;8.716;2022-10-26T11:26:41;18.70;98.60
22544;DHT22;11438;52.044;8.716;2022-10-26T11:29:16;18.80;98.70
22544;DHT22;11438;52.044;8.716;2022-10-26T11:31:46;18.80;98.50
22544;DHT22;11438;52.044;8.716;2022-10-26T11:37:23;18.90;98.40
22544;DHT22;11438;52.044;8.716;2022-10-26T11:42:35;19.00;98.50
22544;DHT22;11438;52.044;8.716;2022-10-26T11:48:11;19.10;98.40
22544;DHT22;11438;52.044;8.716;2022-10-26T11:50:42;19.20;98.30
22544;DHT22;11438;52.044;8.716;2022-10-26T11:53:15;19.30;98.30
22544;DHT22;11438;52.044;8.716;2022-10-26T11:55:45;19.30;98.30
22544;DHT22;11438;52.044;8.716;2022-10-26T11:58:12;19.30;98.20
22544;DHT22;11438;52.044;8.716;2022-10-26T12:00:48;19.40;98.00
22544;DHT22;11438;52.044;8.716;2022-10-26T12:03:17;19.40;97.80
22544;DHT22;11438;52.044;8.716;2022-10-26T12:05:51;19.50;98.20
22544;DHT22;11438;52.044;8.716;2022-10-26T12:08:35;19.60;97.90
22544;DHT22;11438;52.044;8.716;2022-10-26T12:13:58;19.70;97.60
22544;DHT22;11438;52.044;8.716;2022-10-26T12:19:38;19.90;97.30
22544;DHT22;11438;52.044;8.716;2022-10-26T12:22:11;19.90;97.20
22544;DHT22;11438;52.044;8.716;2022-10-26T12:24:43;20.00;97.20
22544;DHT22;11438;52.044;8.716;2022-10-26T12:35:43;20.20;96.70
22544;DHT22;11438;52.044;8.716;2022-10-26T12:48:43;20.50;96.40
22544;DHT22;11438;52.044;8.716;2022-10-26T12:54:21;20.60;96.00
22544;DHT22;11438;52.044;8.716;2022-10-26T12:56:55;20.60;96.20
22544;DHT22;11438;52.044;8.716;2022-10-26T12:59:26;20.70;96.20
22544;DHT22;11438;52.044;8.716;2022-10-26T13:07:16;20.80;96.20
22544;DHT22;11438;52.044;8.716;2022-10-26T13:10:04;20.90;96.10
22544;DHT22;11438;52.044;8.716;2022-10-26T13:15:23;20.90;95.90
22544;DHT22;11438;52.044;8.716;2022-10-26T13:17:59;20.90;95.70
22544;DHT22;11438;52.044;8.716;2022-10-26T13:20:26;21.00;95.80
22544;DHT22;11438;52.044;8.716;2022-10-26T13:22:53;21.00;95.80
22544;DHT22;11438;52.044;8.716;2022-10-26T13:25:27;21.00;95.80
22544;DHT22;11438;52.044;8.716;2022-10-26T13:32:59;21.10;95.50
22544;DHT22;11438;52.044;8.716;2022-10-26T13:35:26;21.10;95.50
22544;DHT22;11438;52.044;8.716;2022-10-26T13:37:54;21.20;95.50
22544;DHT22;11438;52.044;8.716;2022-10-26T13:40:25;21.20;95.40
22544;DHT22;11438;52.044;8.716;2022-10-26T13:43:02;21.20;95.50
22544;DHT22;11438;52.044;8.716;2022-10-26T13:45:31;21.30;95.50
22544;DHT22;11438;52.044;8.716;2022-10-26T13:50:53;21.30;95.10
22544;DHT22;11438;52.044;8.716;2022-10-26T13:53:28;21.30;95.30
22544;DHT22;11438;52.044;8.716;2022-10-26T13:56:05;21.30;95.30
22544;DHT22;11438;52.044;8.716;2022-10-26T13:58:43;21.30;95.00
22544;DHT22;11438;52.044;8.716;2022-10-26T14:01:14;21.30;95.00
22544;DHT22;11438;52.044;8.716;2022-10-26T14:03:40;21.30;94.80
22544;DHT22;11438;52.044;8.716;2022-10-26T14:08:45;21.30;94.50
22544;DHT22;11438;52.044;8.716;2022-10-26T14:11:17;21.40;94.50
22544;DHT22;11438;52.044;8.716;2022-10-26T14:13:45;21.40;94.50
22544;DHT22;11438;52.044;8.716;2022-10-26T14:16:14;21.40;94.50
22544;DHT22;11438;52.044;8.716;2022-10-26T14:18:40;21.40;94.60
22544;DHT22;11438;52.044;8.716;2022-10-26T14:21:12;21.40;94.70
22544;DHT22;11438;52.044;8.716;2022-10-26T14:28:47;21.40;94.60
22544;DHT22;11438;52.044;8.716;2022-10-26T14:33:51;21.40;94.70
22544;DHT22;11438;52.044;8.716;2022-10-26T14:36:20;21.40;94.70
22544;DHT22;11438;52.044;8.716;2022-10-26T14:38:49;21.50;94.80
22544;DHT22;11438;52.044;8.716;2022-10-26T14:41:16;21.50;94.80
22544;DHT22;11438;52.044;8.716;2022-10-26T14:43:43;21.50;94.80
22544;DHT22;11438;52.044;8.716;2022-10-26T14:46:14;21.50;94.60
22544;DHT22;11438;52.044;8.716;2022-10-26T14:48:52;21.50;94.60
22544;DHT22;11438;52.044;8.716;2022-10-26T14:51:20;21.50;94.50
22544;DHT22;11438;52.044;8.716;2022-10-26T14:53:51;21.50;94.40
22544;DHT22;11438;52.044;8.716;2022-10-26T14:58:55;21.50;94.40
22544;DHT22;11438;52.044;8.716;2022-10-26T15:03:55;21.50;94.30
22544;DHT22;11438;52.044;8.716;2022-10-26T15:06:30;21.50;94.30
22544;DHT22;11438;52.044;8.716;2022-10-26T15:08:57;21.40;94.40
22544;DHT22;11438;52.044;8.716;2022-10-26T15:11:25;21.40;94.40
22544;DHT22;11438;52.044;8.716;2022-10-26T15:13:50;21.40;94.40
22544;DHT22;11438;52.044;8.716;2022-10-26T15:16:21;21.40;94.50
22544;DHT22;11438;52.044;8.716;2022-10-26T15:18:49;21.40;94.50
22544;DHT22;11438;52.044;8.716;2022-10-26T15:21:23;21.40;94.60
22544;DHT22;11438;52.044;8.716;2022-10-26T15:23:50;21.40;94.50
22544;DHT22;11438;52.044;8.716;2022-10-26T15:26:17;21.40;94.50
22544;DHT22;11438;52.044;8.716;2022-10-26T15:28:43;21.40;94.50
22544;DHT22;11438;52.044;8.716;2022-10-26T15:33:36;21.30;94.60
22544;DHT22;11438;52.044;8.716;2022-10-26T15:38:38;21.20;94.40
22544;DHT22;11438;52.044;8.716;2022-10-26T15:41:05;21.20;94.50
22544;DHT22;11438;52.044;8.716;2022-10-26T15:43:37;21.20;94.60
22544;DHT22;11438;52.044;8.716;2022-10-26T15:46:03;21.10;94.60
22544;DHT22;11438;52.044;8.716;2022-10-26T15:48:30;21.10;94.70
22544;DHT22;11438;52.044;8.716;2022-10-26T15:50:56;21.10;94.60
22544;DHT22;11438;52.044;8.716;2022-10-26T15:53:26;21.10;94.70
22544;DHT22;11438;52.044;8.716;2022-10-26T15:55:57;21.00;94.70
22544;DHT22;11438;52.044;8.716;2022-10-26T15:58:23;21.00;94.70
22544;DHT22;11438;52.044;8.716;2022-10-26T16:00:50;20.90;94.70
22544;DHT22;11438;52.044;8.716;2022-10-26T16:03:23;20.90;94.80
22544;DHT22;11438;52.044;8.716;2022-10-26T16:05:54;20.80;94.80
22544;DHT22;11438;52.044;8.716;2022-10-26T16:08:21;20.80;94.90
22544;DHT22;11438;52.044;8.716;2022-10-26T16:10:46;20.80;94.90
22544;DHT22;11438;52.044;8.716;2022-10-26T16:13:13;20.70;94.90
22544;DHT22;11438;52.044;8.716;2022-10-26T16:15:39;20.70;94.90
22544;DHT22;11438;52.044;8.716;2022-10-26T16:18:04;20.60;94.90
22544;DHT22;11438;52.044;8.716;2022-10-26T16:20:30;20.60;95.00
22544;DHT22;11438;52.044;8.716;2022-10-26T16:22:56;20.50;95.00
22544;DHT22;11438;52.044;8.716;2022-10-26T16:25:24;20.50;95.00
22544;DHT22;11438;52.044;8.716;2022-10-26T16:27:52;20.50;95.00
22544;DHT22;11438;52.044;8.716;2022-10-26T16:30:18;20.40;95.00
22544;DHT22;11438;52.044;8.716;2022-10-26T16:32:44;20.40;95.00
22544;DHT22;11438;52.044;8.716;2022-10-26T16:35:10;20.40;95.10
22544;DHT22;11438;52.044;8.716;2022-10-26T16:37:36;20.30;95.10
22544;DHT22;11438;52.044;8.716;2022-10-26T16:40:02;20.30;95.20
22544;DHT22;11438;52.044;8.716;2022-10-26T16:42:30;20.20;95.20
22544;DHT22;11438;52.044;8.716;2022-10-26T16:44:55;20.20;95.20
22544;DHT22;11438;52.044;8.716;2022-10-26T16:47:21;20.20;95.30
22544;DHT22;11438;52.044;8.716;2022-10-26T16:49:46;20.10;95.20
22544;DHT22;11438;52.044;8.716;2022-10-26T16:52:12;20.10;95.30
22544;DHT22;11438;52.044;8.716;2022-10-26T16:54:38;20.10;95.30
22544;DHT22;11438;52.044;8.716;2022-10-26T16:57:04;20.00;95.20
22544;DHT22;11438;52.044;8.716;2022-10-26T16:59:29;20.00;95.30
22544;DHT22;11438;52.044;8.716;2022-10-26T17:01:55;19.90;95.30
22544;DHT22;11438;52.044;8.716;2022-10-26T17:04:21;19.90;95.40
22544;DHT22;11438;52.044;8.716;2022-10-26T17:06:46;19.90;95.40
22544;DHT22;11438;52.044;8.716;2022-10-26T17:09:12;19.80;95.50
22544;DHT22;11438;52.044;8.716;2022-10-26T17:11:38;19.80;95.50
22544;DHT22;11438;52.044;8.716;2022-10-26T17:14:03;19.70;95.60
22544;DHT22;11438;52.044;8.716;2022-10-26T17:16:29;19.70;95.60
22544;DHT22;11438;52.044;8.716;2022-10-26T17:18:54;19.60;95.60
22544;DHT22;11438;52.044;8.716;2022-10-26T17:21:28;19.60;95.70
22544;DHT22;11438;52.044;8.716;2022-10-26T17:23:54;19.60;95.70
22544;DHT22;11438;52.044;8.716;2022-10-26T17:26:20;19.60;95.70
22544;DHT22;11438;52.044;8.716;2022-10-26T17:28:50;19.50;95.70
22544;DHT22;11438;52.044;8.716;2022-10-26T17:31:16;19.50;95.80
22544;DHT22;11438;52.044;8.716;2022-10-26T17:33:43;19.50;96.10
22544;DHT22;11438;52.044;8.716;2022-10-26T17:36:11;19.40;95.70
22544;DHT22;11438;52.044;8.716;2022-10-26T17:38:41;19.40;95.80
22544;DHT22;11438;52.044;8.716;2022-10-26T17:41:08;19.30;95.70
22544;DHT22;11438;52.044;8.716;2022-10-26T17:43:39;19.30;95.80
22544;DHT22;11438;52.044;8.716;2022-10-26T17:46:09;19.30;95.80
22544;DHT22;11438;52.044;8.716;2022-10-26T17:48:36;19.30;95.90
22544;DHT22;11438;52.044;8.716;2022-10-26T17:51:04;19.20;95.80
22544;DHT22;11438;52.044;8.716;2022-10-26T17:53:30;19.20;95.90
22544;DHT22;11438;52.044;8.716;2022-10-26T17:56:04;19.10;95.80
22544;DHT22;11438;52.044;8.716;2022-10-26T17:58:31;19.10;95.90